• Join FlightAware (Why Join?)
  • Login
  • US Flag 
10:46PM EDT


 

Airport Tracker/Info


-or-


 

Live Flight TrackerFlight Track Log ✈ UAL5961 ✈ 04-Jul-2014 ✈ KUNV - KORD

Flight Track Log - Related Links

Times and Time Zones

All times are in EDT time to prevent confusion due to time zone crossing. See the UAL5961 flight status page for this flight to view local times or setup timezone preferences in your user account.

Time Position Orientation Groundspeed Altitude Reporting Facility
EDT Latitude Longitude Course Direction KTS MPH feet Rate Location/Type
06:26AM 40.8242 -77.8950 270° West 172 198 3,200  Level Cleveland Center
06:27AM 40.8239 -77.9822 270° West 203 234 5,300 1,860 Climbing Cleveland Center
06:28AM 40.8247 -78.0706 271° West 222 255 7,100 1,980 Climbing Cleveland Center
06:29AM 40.8256 -78.1689 271° West 262 302 9,300 1,980 Climbing Cleveland Center
06:30AM 40.8264 -78.2714 271° West 275 316 11,100 1,680 Climbing Cleveland Center
06:31AM 40.8267 -78.3792 270° West 290 334 12,800 1,380 Climbing Cleveland Center
06:32AM 40.8275 -78.4947 271° West 309 356 14,000 1,200 Climbing Cleveland Center
06:33AM 40.8275 -78.6164 270° West 325 374 15,300 1,320 Climbing Cleveland Center
06:34AM 40.8283 -78.7403 271° West 332 382 16,700 1,260 Climbing Cleveland Center
06:35AM 40.8292 -78.8633 271° West 334 384 17,900 1,260 Climbing Cleveland Center
06:36AM 40.8300 -78.9881 271° West 335 386 19,300 1,320 Climbing Cleveland Center
06:37AM 40.8336 -79.1136 272° West 337 388 20,600 1,320 Climbing Cleveland Center
06:38AM 40.8492 -79.2392 279° West 344 396 22,000 1,320 Climbing Cleveland Center
06:39AM 40.8658 -79.3633 280° West 346 398 23,300 1,320 Climbing Cleveland Center
06:40AM 40.8822 -79.4861 280° West 344 396 24,700 1,320 Climbing Cleveland Center
06:41AM 40.8969 -79.6086 279° West 343 395 26,000 1,260 Climbing Cleveland Center
06:42AM 40.9114 -79.7269 279° West 334 384 27,300 1,380 Climbing Cleveland Center
06:43AM 40.9286 -79.8669 279° West 325 374 28,900 1,320 Climbing Cleveland Center
06:44AM 40.9419 -79.9817 279° West 323 372 30,100 1,080 Climbing Cleveland Center
06:45AM 40.9561 -80.0956 279° West 321 369 31,200 1,020 Climbing Cleveland Center
06:46AM 40.9700 -80.2122 279° West 321 369 32,200 1,020 Climbing Cleveland Center
06:47AM 40.9842 -80.3292 279° West 322 371 33,300 1,020 Climbing Cleveland Center
06:48AM 40.9969 -80.4447 278° West 322 371 34,300 960 Climbing Cleveland Center
06:49AM 41.0114 -80.5594 280° West 319 367 35,300 780 Climbing Cleveland Center
06:50AM 41.0250 -80.6733 279° West 316 364 36,000 300 Climbing Cleveland Center
06:51AM 41.0386 -80.7936 279° West 328 377 36,000  Level Cleveland Center
06:52AM 41.0511 -80.9208 277° West 345 397 36,000  Level Cleveland Center
06:54AM 41.0611 -81.0811 275° West 361 415 36,000  Level Cleveland Center
06:55AM 41.0700 -81.2186 275° West 368 423 36,000  Level Cleveland Center
06:56AM 41.0781 -81.3528 275° West 363 418 36,000  Level Cleveland Center
06:57AM 41.0858 -81.4869 274° West 362 417 36,000  Level Cleveland Center
06:58AM 41.0939 -81.6192 275° West 358 412 36,000  Level Cleveland Center
06:59AM 41.1014 -81.7517 274° West 357 411 36,000  Level Cleveland Center
07:00AM 41.1078 -81.8622 274° West 357 411 36,000  Level Cleveland Center
07:01AM 41.1156 -81.9992 274° West 363 418 36,000  Level Cleveland Center
07:02AM 41.1247 -82.1642 274° West 380 437 36,000  Level Cleveland Center
07:03AM 41.1328 -82.3058 274° West 381 438 36,000  Level Cleveland Center
07:04AM 41.1408 -82.4503 274° West 386 444 36,000  Level Cleveland Center
07:05AM 41.1478 -82.5881 274° West 377 434 36,000  Level Cleveland Center
07:06AM 41.1553 -82.7264 274° West 376 433 36,000  Level Cleveland Center
07:07AM 41.1617 -82.8603 274° West 366 421 36,000  Level Cleveland Center
07:08AM 41.1686 -82.9961 274° West 366 421 36,000  Level Cleveland Center
07:09AM 41.1747 -83.1342 273° West 370 426 36,000  Level Cleveland Center
07:10AM 41.1817 -83.2664 274° West 382 440 36,000  Level Cleveland Center
07:11AM 41.1886 -83.4086 274° West 383 441 36,000  Level Cleveland Center
07:12AM 41.1950 -83.5528 273° West 386 444 36,000  Level Cleveland Center
07:13AM 41.2011 -83.6958 273° West 387 445 36,000  Level Cleveland Center
07:14AM 41.2081 -83.8664 273° West 385 443 36,000  Level Cleveland Center
07:15AM 41.2136 -84.0022 273° West 389 448 36,000  Level Cleveland Center
07:16AM 41.2194 -84.1456 273° West 389 448 36,000  Level Cleveland Center
07:17AM 41.2247 -84.2892 273° West 389 448 36,000 -420 Level Cleveland Center
07:18AM 41.2281 -84.4331 272° West 389 448 35,200 -1,020 Descending Cleveland Center
07:19AM 41.2328 -84.5767 273° West 390 449 34,000 -720 Descending Cleveland Center
07:20AM 41.2375 -84.6903 273° West 390 449 34,000  Level Chicago Center
07:21AM 41.2436 -84.8364 273° West 391 450 34,000  Level Chicago Center
07:22AM 41.2494 -84.9811 273° West 392 451 34,000  Level Chicago Center
07:23AM 41.2542 -85.1219 273° West 385 443 34,000 -780 Level Chicago Center
07:24AM 41.2586 -85.2622 272° West 383 441 32,500 -1,740 Descending Chicago Center
07:25AM 41.2636 -85.3964 273° West 370 426 30,500 -2,040 Descending Chicago Center
07:26AM 41.2678 -85.5322 272° West 365 420 28,400 -2,100 Descending Chicago Center
07:27AM 41.2728 -85.6747 273° West 380 437 26,300 -1,680 Descending Chicago Center
07:28AM 41.2761 -85.8231 272° West 395 455 25,000 -660 Descending Chicago Center
07:29AM 41.2806 -85.9694 272° West 395 455 25,000 -60 Level Chicago Center
07:30AM 41.2908 -86.1094 276° West 383 441 24,900 -660 Descending Chicago Center
07:31AM 41.3075 -86.2503 279° West 382 440 23,700 -1,680 Descending Chicago Center
07:32AM 41.3236 -86.3850 279° West 371 427 21,500 -2,400 Descending Chicago Center
07:33AM 41.3494 -86.5147 285° West 361 415 18,800 -2,580 Descending Chicago Center
07:34AM 41.4281 -86.5964 322° Northwest 359 413 16,300 -2,640 Descending Chicago Center
07:35AM 41.5117 -86.6689 327° Northwest 358 412 13,500 -2,100 Descending Chicago Center
07:36AM 41.6067 -86.7500 327° Northwest 358 412 12,100 -780 Descending Chicago Center
07:37AM 41.7006 -86.8011 338° Northwest 344 396 12,000 -60 Descending Chicago Center
07:38AM 41.7903 -86.8128 354° North 328 377 12,000 -60 Level Chicago Center
07:39AM 41.8772 -86.8483 343° North 335 386 11,900 -720 Descending Chicago Center
07:40AM 41.9194 -86.9614 297° West 341 392 10,600 -960 Descending Chicago Center
07:41AM 41.9631 -87.0794 296° West 331 381 10,000 -420 Descending Chicago Center
07:42AM 41.9886 -87.1822 289° West 289 333 9,800 -480 Descending Chicago Center
07:43AM 41.9786 -87.2833 262° West 275 316 9,100 -780 Descending Chicago Center
07:44AM 41.9831 -87.3833 273° West 269 310 8,300 -1,380 Descending Chicago Center
07:45AM 41.9828 -87.4906 270° West 270 311 6,400 -1,620 Descending Chicago Center
07:46AM 41.9831 -87.5842 270° West 254 292 5,100 -1,260 Descending Chicago Center
07:47AM 41.9828 -87.6658 270° West 222 255 3,900 -1,140 Descending Chicago Center
07:48AM 41.9833 -87.7417 271° West 206 237 2,800 -1,080 Descending Chicago Center
07:49AM 41.9836 -87.8086 270° West 168 193 1,800 -840 Descending Chicago Center
07:50AM 41.9828 -87.8561 269° West 133 153 1,200 -540 Descending Chicago Center
07:51AM 41.9825 -87.8975 269° West 130 150 800 -420 Descending Chicago Center
07:53AM 41.9793 -87.9074 270° West  Level Estimated